createdAt,value
2022-12-12T00:00:37.159Z,99335.84
2022-12-12T00:03:25.150Z,99342.84
2022-12-12T00:06:13.483Z,99344.78
2022-12-12T00:09:03.541Z,99338.56
2022-12-12T00:11:51.668Z,99339.72
2022-12-12T00:14:39.769Z,99339.75
2022-12-12T00:17:28.137Z,99335.91
2022-12-12T00:20:17.779Z,99344.00
2022-12-12T00:23:06.059Z,99338.22
2022-12-12T00:26:01.247Z,99344.41
2022-12-12T00:28:49.970Z,99345.50
2022-12-12T00:31:40.534Z,99341.28
2022-12-12T00:34:28.736Z,99344.72
2022-12-12T00:37:16.871Z,99345.94
2022-12-12T00:40:06.561Z,99336.22
2022-12-12T00:42:54.474Z,99345.94
2022-12-12T00:45:45.496Z,99347.53
2022-12-12T00:48:33.545Z,99349.91
2022-12-12T00:51:23.628Z,99343.75
2022-12-12T00:54:12.696Z,99348.03
2022-12-12T00:57:00.601Z,99351.53
2022-12-12T00:59:48.448Z,99351.88
2022-12-12T01:02:36.563Z,99356.91
2022-12-12T01:05:26.067Z,99359.63
2022-12-12T01:08:14.159Z,99361.25
2022-12-12T01:11:02.112Z,99362.41
2022-12-12T01:13:52.415Z,99364.75
2022-12-12T01:16:42.795Z,99360.41
2022-12-12T01:19:31.947Z,99363.53
2022-12-12T01:22:20.244Z,99363.94
2022-12-12T01:25:10.954Z,99362.34
2022-12-12T01:28:00.135Z,99355.72
2022-12-12T01:30:48.296Z,99361.19
2022-12-12T01:33:36.780Z,99362.75
2022-12-12T01:36:27.301Z,99351.06
2022-12-12T01:39:15.530Z,99359.97
2022-12-12T01:42:03.700Z,99355.69
2022-12-12T01:44:53.604Z,99353.44
2022-12-12T01:47:41.480Z,99365.47
2022-12-12T01:50:29.403Z,99369.38
2022-12-12T01:53:19.556Z,99364.72
2022-12-12T01:56:12.521Z,99359.28
2022-12-12T01:59:04.041Z,99369.03
2022-12-12T02:01:53.508Z,99365.53
2022-12-12T02:04:42.686Z,99368.22
2022-12-12T02:07:30.622Z,99365.91
2022-12-12T02:10:18.796Z,99366.34
2022-12-12T02:13:12.745Z,99368.25
2022-12-12T02:16:26.163Z,99363.94
2022-12-12T02:19:57.100Z,99364.63
2022-12-12T02:23:10.260Z,99373.53
2022-12-12T02:26:47.636Z,99373.22
2022-12-12T02:29:55.756Z,99375.09
2022-12-12T02:33:14.662Z,99378.22
2022-12-12T02:36:52.221Z,99377.47
2022-12-12T02:40:11.763Z,99378.63
2022-12-12T02:43:25.530Z,99377.84
2022-12-12T02:46:32.725Z,99377.38
2022-12-12T02:49:33.185Z,99368.78
2022-12-12T02:52:22.359Z,99375.00
2022-12-12T02:55:11.145Z,99383.56
2022-12-12T02:57:59.828Z,99382.03
2022-12-12T03:01:29.407Z,99383.19
2022-12-12T03:04:53.075Z,99387.97
2022-12-12T03:08:11.859Z,99387.53
2022-12-12T03:11:15.575Z,99382.06
2022-12-12T03:14:14.000Z,99386.75
2022-12-12T03:17:34.315Z,99387.56
2022-12-12T03:20:49.777Z,99384.81
2022-12-12T03:23:43.297Z,99382.13
2022-12-12T03:26:40.315Z,99396.94
2022-12-12T03:29:41.196Z,99394.19
2022-12-12T03:32:38.350Z,99386.03
2022-12-12T03:35:50.971Z,99379.47
2022-12-12T03:38:46.386Z,99380.69
2022-12-12T03:41:44.085Z,99384.16
2022-12-12T03:45:03.636Z,99396.25
2022-12-12T03:47:56.407Z,99383.47
2022-12-12T03:50:50.935Z,99390.03
2022-12-12T03:58:23.114Z,99387.28
2022-12-12T04:01:13.146Z,99395.09
2022-12-12T04:04:18.773Z,99396.28
2022-12-12T04:07:23.486Z,99393.94
2022-12-12T04:10:31.085Z,99395.88
2022-12-12T04:13:32.568Z,99393.56
2022-12-12T04:16:29.872Z,99398.22
2022-12-12T04:19:53.888Z,99394.31
2022-12-12T04:23:15.454Z,99398.16
2022-12-12T04:26:39.631Z,99402.06
2022-12-12T04:30:00.680Z,99405.56
2022-12-12T04:32:57.638Z,99417.25
2022-12-12T04:35:50.090Z,99415.72
2022-12-12T04:38:38.778Z,99413.41
2022-12-12T04:41:28.831Z,99411.84
2022-12-12T04:44:19.994Z,99421.97
2022-12-12T04:47:10.489Z,99413.38
2022-12-12T04:50:01.482Z,99427.41
2022-12-12T04:52:51.016Z,99428.97
2022-12-12T04:55:44.731Z,99425.06
2022-12-12T04:58:32.630Z,99431.69
2022-12-12T05:01:57.181Z,99430.50
2022-12-12T05:04:59.123Z,99425.47
2022-12-12T05:08:00.841Z,99426.22
2022-12-12T05:10:55.827Z,99433.25
2022-12-12T05:13:44.989Z,99428.56
2022-12-12T05:16:40.160Z,99430.09
2022-12-12T05:19:28.066Z,99429.34
2022-12-12T05:22:16.012Z,99423.09
2022-12-12T05:25:04.879Z,99434.00
2022-12-12T05:27:52.727Z,99432.44
2022-12-12T05:30:40.730Z,99435.19
2022-12-12T05:33:28.613Z,99427.41
2022-12-12T05:36:17.525Z,99435.97
2022-12-12T05:39:05.548Z,99433.63
2022-12-12T05:41:53.373Z,99439.84
2022-12-12T05:44:41.281Z,99440.97
2022-12-12T05:47:32.227Z,99436.69
2022-12-12T05:50:20.081Z,99435.13
2022-12-12T05:53:08.225Z,99445.25
2022-12-12T05:55:56.439Z,99442.94
2022-12-12T05:58:44.375Z,99441.75
2022-12-12T06:01:32.624Z,99446.41
2022-12-12T06:04:20.610Z,99440.97
2022-12-12T06:07:09.322Z,99435.16
2022-12-12T06:09:57.274Z,99435.94
2022-12-12T06:12:47.446Z,99446.47
2022-12-12T06:15:40.433Z,99448.00
2022-12-12T06:18:28.259Z,99458.13
2022-12-12T06:21:16.277Z,99449.19
2022-12-12T06:24:06.848Z,99461.63
2022-12-12T06:26:54.707Z,99459.28
2022-12-12T06:29:42.655Z,99458.50
2022-12-12T06:32:30.684Z,99452.69
2022-12-12T06:35:18.974Z,99440.25
2022-12-12T06:38:19.579Z,99457.72
2022-12-12T06:41:10.399Z,99445.28
2022-12-12T06:44:00.234Z,99453.84
2022-12-12T06:46:50.803Z,99467.47
2022-12-12T06:50:11.833Z,99457.72
2022-12-12T06:52:59.961Z,99465.47
2022-12-12T06:55:48.274Z,99481.47
2022-12-12T06:58:44.744Z,99475.28
2022-12-12T07:01:33.535Z,99481.88
2022-12-12T07:04:28.946Z,99483.81
2022-12-12T07:07:17.418Z,99489.28
2022-12-12T07:10:06.769Z,99491.97
2022-12-12T07:13:05.112Z,99474.06
2022-12-12T07:15:59.274Z,99478.34
2022-12-12T07:18:55.851Z,99491.59
2022-12-12T07:21:44.124Z,99498.59
2022-12-12T07:24:35.060Z,99500.91
2022-12-12T07:27:23.219Z,99501.72
2022-12-12T07:33:39.537Z,99502.88
2022-12-12T07:36:29.157Z,99497.03
2022-12-12T07:39:20.909Z,99500.50
2022-12-12T07:42:09.353Z,99494.28
2022-12-12T07:44:57.626Z,99509.50
2022-12-12T07:47:48.609Z,99512.63
2022-12-12T07:50:39.829Z,99508.72
2022-12-12T07:53:31.250Z,99506.00
2022-12-12T07:56:23.613Z,99518.44
2022-12-12T07:59:12.767Z,99518.41
2022-12-12T08:02:04.430Z,99516.84
2022-12-12T08:04:59.466Z,99521.06
2022-12-12T08:07:48.223Z,99533.91
2022-12-12T08:10:42.715Z,99529.63
2022-12-12T08:13:39.310Z,99529.63
2022-12-12T08:16:32.331Z,99533.63
2022-12-12T08:19:26.319Z,99537.13
2022-12-12T08:22:18.578Z,99552.72
2022-12-12T08:25:12.381Z,99553.47
2022-12-12T08:28:07.200Z,99546.06
2022-12-12T08:34:16.408Z,99544.88
2022-12-12T08:37:39.617Z,99540.16
2022-12-12T08:40:49.322Z,99553.81
2022-12-12T08:43:41.253Z,99542.91
2022-12-12T08:46:34.713Z,99547.56
2022-12-12T08:49:37.398Z,99541.38
2022-12-12T08:52:45.327Z,99549.19
2022-12-12T08:55:49.940Z,99566.34
2022-12-12T09:02:10.167Z,99569.69
2022-12-12T09:08:31.207Z,99567.09
2022-12-12T09:11:25.061Z,99569.03
2022-12-12T09:14:13.532Z,99562.75
2022-12-12T09:17:02.409Z,99577.09
2022-12-12T09:19:50.933Z,99577.88
2022-12-12T09:22:39.485Z,99575.25
2022-12-12T09:26:54.847Z,99581.72
2022-12-12T09:29:45.527Z,99571.06
2022-12-12T09:33:12.957Z,99579.44
2022-12-12T09:36:09.244Z,99581.13
2022-12-12T09:39:00.118Z,99593.16
2022-12-12T09:41:51.099Z,99584.13
2022-12-12T09:44:40.779Z,99600.72
2022-12-12T09:47:47.455Z,99580.09
2022-12-12T09:51:09.438Z,99609.28
2022-12-12T09:54:11.072Z,99593.59
2022-12-12T09:57:25.224Z,99597.06
2022-12-12T10:04:13.783Z,99600.03
2022-12-12T10:07:24.858Z,99594.84
2022-12-12T10:10:58.799Z,99581.06
2022-12-12T10:13:55.679Z,99581.03
2022-12-12T10:16:53.957Z,99577.19
2022-12-12T10:19:56.565Z,99582.69
2022-12-12T10:22:52.711Z,99579.03
2022-12-12T10:26:02.897Z,99588.47
2022-12-12T10:29:10.706Z,99580.22
2022-12-12T10:32:42.737Z,99584.72
2022-12-12T10:35:53.787Z,99570.28
2022-12-12T10:39:12.852Z,99585.50
2022-12-12T10:42:37.682Z,99577.78
2022-12-12T10:45:52.928Z,99578.88
2022-12-12T10:48:44.480Z,99586.34
2022-12-12T10:51:38.741Z,99583.56
2022-12-12T10:54:29.052Z,99582.84
2022-12-12T10:57:45.851Z,99573.50
2022-12-12T11:00:39.818Z,99583.28
2022-12-12T11:03:35.838Z,99586.69
2022-12-12T11:06:43.034Z,99572.03
2022-12-12T11:09:32.302Z,99579.59
2022-12-12T11:12:21.138Z,99582.38
2022-12-12T11:15:19.972Z,99579.28
2022-12-12T11:18:15.922Z,99569.84
2022-12-12T11:21:10.568Z,99568.75
2022-12-12T11:23:59.428Z,99578.91
2022-12-12T11:27:05.956Z,99573.72
2022-12-12T11:30:22.568Z,99574.19
2022-12-12T11:33:31.410Z,99579.19
2022-12-12T11:36:37.319Z,99575.19
2022-12-12T11:39:42.172Z,99559.47
2022-12-12T11:50:10.800Z,99555.16
2022-12-12T11:53:05.414Z,99566.81
2022-12-12T11:56:20.557Z,99562.53
2022-12-12T11:59:11.790Z,99562.00
2022-12-12T12:02:55.443Z,99563.22
2022-12-12T12:06:01.786Z,99554.78
2022-12-12T12:09:20.849Z,99550.53
2022-12-12T12:12:23.822Z,99533.47
2022-12-12T12:15:41.843Z,99539.16
2022-12-12T12:18:48.918Z,99548.25
2022-12-12T12:21:44.803Z,99547.91
2022-12-12T12:25:18.807Z,99554.22
2022-12-12T12:28:28.948Z,99547.06
2022-12-12T12:31:57.799Z,99548.66
2022-12-12T12:35:31.494Z,99540.72
2022-12-12T12:38:49.966Z,99545.56
2022-12-12T12:42:23.982Z,99538.41
2022-12-12T12:45:53.340Z,99554.06
2022-12-12T12:48:52.920Z,99539.50
2022-12-12T12:51:53.227Z,99533.44
2022-12-12T12:54:49.370Z,99535.47
2022-12-12T12:57:44.580Z,99533.00
2022-12-12T13:00:35.883Z,99534.25
2022-12-12T13:03:36.127Z,99534.34
2022-12-12T13:06:47.332Z,99527.78
2022-12-12T13:09:42.434Z,99529.72
2022-12-12T13:12:43.419Z,99518.81
2022-12-12T13:15:39.476Z,99521.53
2022-12-12T13:18:45.062Z,99520.00
2022-12-12T13:21:58.121Z,99528.53
2022-12-12T13:25:12.718Z,99527.91
2022-12-12T13:28:19.643Z,99529.13
2022-12-12T13:31:40.221Z,99524.88
2022-12-12T13:37:20.954Z,99523.56
2022-12-12T13:40:25.215Z,99527.63
2022-12-12T13:43:43.004Z,99531.09
2022-12-12T13:46:49.465Z,99533.53
2022-12-12T13:50:10.262Z,99523.81
2022-12-12T13:53:28.787Z,99533.44
2022-12-12T13:56:47.824Z,99517.69
2022-12-12T14:00:04.304Z,99538.81
2022-12-12T14:03:17.495Z,99526.97
2022-12-12T14:06:14.376Z,99529.72
2022-12-12T14:09:04.525Z,99536.38
2022-12-12T14:12:08.824Z,99539.81
2022-12-12T14:15:03.540Z,99532.81
2022-12-12T14:18:16.893Z,99530.41
2022-12-12T14:21:11.623Z,99535.50
2022-12-12T14:24:35.295Z,99547.50
2022-12-12T14:27:51.968Z,99547.59
2022-12-12T14:31:12.332Z,99542.06
2022-12-12T14:34:08.623Z,99543.69
2022-12-12T14:37:44.725Z,99546.03
2022-12-12T14:40:44.863Z,99541.00
2022-12-12T14:43:45.505Z,99542.16
2022-12-12T14:46:45.087Z,99544.09
2022-12-12T14:49:39.353Z,99558.09
2022-12-12T14:52:32.402Z,99549.94
2022-12-12T14:55:31.647Z,99542.16
2022-12-12T14:58:28.720Z,99541.38
2022-12-12T15:01:52.788Z,99537.91
2022-12-12T15:04:47.814Z,99535.19
2022-12-12T15:07:39.240Z,99549.22
2022-12-12T15:10:30.925Z,99554.25
2022-12-12T15:13:26.828Z,99544.53
2022-12-12T15:16:17.281Z,99547.63
2022-12-12T15:19:06.471Z,99547.25
2022-12-12T15:22:03.502Z,99552.28
2022-12-12T15:24:56.101Z,99556.22
2022-12-12T15:27:55.734Z,99545.69
2022-12-12T15:30:49.841Z,99546.44
2022-12-12T15:33:42.931Z,99548.81
2022-12-12T15:40:33.351Z,99545.22
2022-12-12T15:43:30.779Z,99549.53
2022-12-12T15:51:33.688Z,99548.63
2022-12-12T15:54:57.661Z,99564.59
2022-12-12T15:58:01.853Z,99554.44
2022-12-12T16:01:26.774Z,99564.09
2022-12-12T16:04:32.756Z,99562.78
2022-12-12T16:07:36.807Z,99562.00
2022-12-12T16:10:37.779Z,99546.44
2022-12-12T16:13:40.352Z,99556.56
2022-12-12T16:16:49.963Z,99562.31
2022-12-12T16:20:16.484Z,99567.03
2022-12-12T16:27:13.874Z,99577.09
2022-12-12T16:30:07.102Z,99573.94
2022-12-12T16:45:08.665Z,99553.91
2022-12-12T16:47:38.715Z,99570.47
2022-12-12T16:55:25.904Z,99576.88
2022-12-12T16:58:46.907Z,99583.38
2022-12-12T17:09:54.500Z,99580.88
2022-12-12T17:14:13.727Z,99586.84
2022-12-12T17:18:34.255Z,99591.09
2022-12-12T17:21:54.291Z,99589.97
2022-12-12T17:38:46.899Z,99589.84
2022-12-12T17:44:58.709Z,99597.75
2022-12-12T17:49:40.111Z,99588.31
2022-12-12T17:52:32.357Z,99606.00
2022-12-12T17:56:01.082Z,99606.38
2022-12-12T18:04:31.297Z,99596.88
2022-12-12T18:10:57.190Z,99590.88
2022-12-12T18:20:19.945Z,99583.28
2022-12-12T18:40:13.040Z,99605.16
2022-12-12T18:52:35.388Z,99595.63
2022-12-12T18:55:49.307Z,99580.34
2022-12-12T18:58:58.183Z,99609.13
2022-12-12T19:02:54.452Z,99610.34
2022-12-12T19:06:49.815Z,99617.03
2022-12-12T19:14:14.054Z,99610.88
2022-12-12T19:17:27.393Z,99616.66
2022-12-12T19:20:57.941Z,99620.13
2022-12-12T19:23:55.915Z,99616.91
2022-12-12T19:27:43.895Z,99617.28
2022-12-12T19:38:22.734Z,99616.81
2022-12-12T19:41:44.750Z,99613.00
2022-12-12T19:48:37.647Z,99611.94
2022-12-12T19:55:13.974Z,99614.97
2022-12-12T20:13:44.957Z,99610.41
2022-12-12T20:16:36.217Z,99603.84
2022-12-12T20:19:31.265Z,99601.78
2022-12-12T20:22:31.154Z,99598.78
2022-12-12T20:25:24.848Z,99599.19
2022-12-12T20:32:39.783Z,99611.38
2022-12-12T20:36:35.577Z,99616.72
2022-12-12T20:39:40.179Z,99600.78
2022-12-12T20:42:47.310Z,99608.09
2022-12-12T20:45:41.407Z,99599.78
2022-12-12T20:48:46.307Z,99622.66
2022-12-12T20:51:57.017Z,99604.00
2022-12-12T20:54:55.976Z,99614.72
2022-12-12T20:57:53.114Z,99593.47
2022-12-12T21:00:55.829Z,99602.75
2022-12-12T21:03:51.748Z,99621.59
2022-12-12T21:07:06.551Z,99614.22
2022-12-12T21:10:02.303Z,99597.28
2022-12-12T21:13:05.463Z,99615.38
2022-12-12T21:16:12.172Z,99598.22
2022-12-12T21:22:31.133Z,99595.00
2022-12-12T21:25:36.413Z,99578.31
2022-12-12T21:29:06.322Z,99577.25
2022-12-12T21:44:16.357Z,99594.25
2022-12-12T21:47:10.912Z,99585.63
2022-12-12T21:50:13.335Z,99584.22
2022-12-12T21:53:20.192Z,99594.81
2022-12-12T21:56:18.958Z,99589.91
2022-12-12T21:59:21.344Z,99596.25
2022-12-12T22:02:19.100Z,99586.00
2022-12-12T22:05:12.933Z,99585.72
2022-12-12T22:08:03.291Z,99590.94
2022-12-12T22:10:56.373Z,99597.09
2022-12-12T22:13:47.233Z,99596.59
2022-12-12T22:16:35.935Z,99585.78
2022-12-12T22:19:31.523Z,99583.72
2022-12-12T22:22:19.853Z,99586.69
2022-12-12T22:25:16.343Z,99583.59
2022-12-12T22:28:07.335Z,99583.44
2022-12-12T22:30:56.027Z,99577.97
2022-12-12T22:33:45.535Z,99591.81
2022-12-12T22:36:40.132Z,99586.75
2022-12-12T22:39:35.519Z,99584.59
2022-12-12T22:42:36.718Z,99573.66
2022-12-12T22:45:29.655Z,99586.34
2022-12-12T22:48:20.464Z,99581.47
2022-12-12T22:51:30.355Z,99579.97
2022-12-12T22:54:24.189Z,99570.06
2022-12-12T22:57:12.592Z,99570.19
2022-12-12T23:00:06.547Z,99556.31
2022-12-12T23:03:11.784Z,99564.59
2022-12-12T23:06:22.546Z,99571.78
2022-12-12T23:09:24.640Z,99577.97
2022-12-12T23:12:45.142Z,99548.69
2022-12-12T23:15:42.261Z,99550.97
2022-12-12T23:18:35.707Z,99573.50
2022-12-12T23:21:38.415Z,99550.81
2022-12-12T23:24:33.131Z,99566.13
2022-12-12T23:27:25.957Z,99560.81
2022-12-12T23:30:20.744Z,99560.63
2022-12-12T23:33:11.649Z,99567.22
2022-12-12T23:36:06.275Z,99571.13
2022-12-12T23:39:01.517Z,99570.00
2022-12-12T23:41:52.806Z,99565.56
2022-12-12T23:44:41.329Z,99572.09
2022-12-12T23:47:35.185Z,99570.72
2022-12-12T23:50:27.663Z,99543.41
2022-12-12T23:53:26.454Z,99562.72
2022-12-12T23:56:27.501Z,99535.75
2022-12-12T23:59:20.348Z,99557.31
